Airfield :
LOGIN :

Register | Disclaimer

   EN    FR    IT 

 










Legend :    VFR   Marginal VFR   IFR   Intensive IFR   Very Intensive IFR
Visi :
Ceiling :
>= 8 km
>= 3000ft
5 to 8 km
1000 to 3000 ft
1500m to 5 km
500 to 1000 ft
800 to 1500m
200 to 500 ft
< 800m
< 200 ft
Symbols :   Thunderstorms  Fog  Heavy snow  Heavy precipitations  Wind > 20 kt
SIGMETs :     Misc.  Thunderstorms  Icing  Turbulence  Mountain Waves  Volcanic Ashes







- Airport Elevation : 675 ft
- IATA code : RZE


EPRZ - Rzeszow-Jasionka

CURRENT METAR :
  • 241830Z 27014KT CAVOK 08/04 Q1020

EXPIRED METARs :
  • 241800Z 27015KT 9999 BKN048 08/04 Q1020
  • 241730Z 26011KT 9999 FEW033CB BKN046 07/05 Q1019
  • 241700Z 28012KT 9999 FEW005 BKN030CB 07/05 Q1019
  • 241630Z 25013KT 9999 -SHRA SCT035CB 09/04 Q1018
  • 241600Z 26016KT 9999 FEW045 09/03 Q1018

TAF TAF EPRZ
Valid from the 24 at 18:00 until the 25 at 18:00 UTC


241730Z 2418/2518 28013KT 9999 BKN030
TEMPO 2418/2421 28020G35KT 4000 SHRA BKN025CB
TEMPO 2421/2515 29015G25KT SHRA BKN014CB
PROB40
TEMPO 2421/2507 BKN007
No reported NOTAMs for that airfield.



MET'MAP, your aeronautical weather chart ! - Copyright ORBIFLY December 2007 - Disclaimer

ORBIFLY MET'MAP TEAM :

Programming & Development : Alexandra Zaïnal
Concept & Development : Baudouin d'Aumeries
Co-Development & Prog : Marc-Olivier Méhu
Technical & hardware support : Manuel Goepfert

Contact : metmap@orbifly.com




SOURCES & CREDITS :

   NOAA